This is the latest recevied weather packets stored in our database for station/object SM6LNJ-13. If no packets are shown the sender has not sent any weather packets the latest 1 day(s).
| Time | Temp. | Humidity | Pressure | Rain* | Wind** | Luminosity | Snow |
|---|---|---|---|---|---|---|---|
| 1778344186 | 20° C | 39% | 1442.2 hPa | 0 mm | - | - | - |
| 1778344066 | 20° C | 40% | 1442.2 hPa | 0 mm | - | - | - |
| 1778343946 | 19.44° C | 39% | 1442 hPa | 0 mm | - | - | - |
| 1778343826 | 19.44° C | 40% | 1441.8 hPa | 0 mm | - | - | - |
| 1778343586 | 19.44° C | 40% | 1441.3 hPa | 0 mm | - | - | - |
| 1778343466 | 19.44° C | 40% | 1441.1 hPa | 0 mm | - | - | - |
| 1778343346 | 19.44° C | 39% | 1441 hPa | 0 mm | - | - | - |
| 1778343226 | 19.44° C | 39% | 1441.3 hPa | 0 mm | - | - | - |
| 1778343106 | 19.44° C | 39% | 1441.5 hPa | 0 mm | - | - | - |
| 1778342866 | 19.44° C | 40% | 1441 hPa | 0 mm | - | - | - |
| 1778342746 | 18.89° C | 41% | 1440.5 hPa | 0 mm | - | - | - |
| 1778342626 | 18.89° C | 42% | 1440.1 hPa | 0 mm | - | - | - |
| 1778342506 | 18.33° C | 42% | 1439.3 hPa | 0 mm | - | - | - |
| 1778342386 | 18.33° C | 43% | 1438.4 hPa | 0 mm | - | - | - |
| 1778342266 | 17.78° C | 43% | 1437.7 hPa | 0 mm | - | - | - |
| 1778342146 | 17.78° C | 44% | 1437 hPa | 0 mm | - | - | - |
| 1778342026 | 17.22° C | 44% | 1436.7 hPa | 0 mm | - | - | - |
| 1778341906 | 17.22° C | 45% | 1436.8 hPa | 0 mm | - | - | - |
| 1778341666 | 17.78° C | 46% | 1437.5 hPa | 0 mm | - | - | - |
| 1778341546 | 17.78° C | 46% | 1437.6 hPa | 0 mm | - | - | - |
| 1778341426 | 17.78° C | 45% | 1438 hPa | 0 mm | - | - | - |
| 1778341306 | 18.33° C | 45% | 1438.3 hPa | 0 mm | - | - | - |
| 1778341186 | 18.33° C | 44% | 1438.6 hPa | 0 mm | - | - | - |
| 1778341066 | 18.33° C | 44% | 1438.6 hPa | 0 mm | - | - | - |
| 1778340946 | 17.78° C | 44% | 1437.8 hPa | 0 mm | - | - | - |
* Rain latest hour (hover to see other rain measurements)
** Current wind speed in m/s (hover to see current wind gust speed)